Time;durP1;ratioP1;P1;durP2;ratioP2;P2;SDS_P1;SDS_P2;PMS_P1;PMS_P2;Temp;Humidity;BMP_temperature;BMP_pressure;BME280_temperature;BME280_humidity;BME280_pressure;Samples;Min_cycle;Max_cycle;Signal;HPM_P1;HPM_P2
2022/06/25 00:02:16;;;;;;;9.57;1.00;;;;;;;21.63;60.73;97583.19;8413782;28;20234;-76
2022/06/25 00:06:21;;;;;;;2.00;1.20;;;;;;;21.46;61.41;97585.63;8414522;28;20249;-76
2022/06/25 00:10:28;;;;;;;2.87;1.27;;;;;;;21.50;61.86;97586.16;8414060;28;20326;-76
2022/06/25 00:14:33;;;;;;;2.33;1.30;;;;;;;21.41;61.87;97584.38;8414405;28;20238;-76
2022/06/25 00:18:35;;;;;;;5.73;1.40;;;;;;;21.53;61.38;97591.13;8414488;28;20437;-76
2022/06/25 00:22:38;;;;;;;6.23;1.30;;;;;;;21.43;61.56;97591.16;8414196;28;20233;-76
2022/06/25 00:26:41;;;;;;;1.63;1.20;;;;;;;21.51;61.13;97587.00;8414040;28;20543;-76
2022/06/25 00:30:45;;;;;;;1.93;1.13;;;;;;;21.43;60.58;97599.06;8413863;28;20231;-76
2022/06/25 00:34:48;;;;;;;3.80;1.37;;;;;;;21.44;61.00;97600.75;8413957;28;20237;-76
2022/06/25 00:38:50;;;;;;;2.87;1.30;;;;;;;21.45;61.58;97604.22;8413826;28;20447;-76
2022/06/25 00:42:53;;;;;;;3.23;1.60;;;;;;;21.43;61.10;97600.88;8413715;28;20233;-76
2022/06/25 00:46:58;;;;;;;2.63;1.30;;;;;;;21.45;60.52;97593.66;8413689;28;20225;-77
2022/06/25 00:51:02;;;;;;;2.30;1.30;;;;;;;21.47;60.78;97597.00;8413748;28;20235;-76
2022/06/25 00:55:07;;;;;;;3.07;1.40;;;;;;;21.32;60.63;97604.50;8413898;28;20449;-75
2022/06/25 00:59:11;;;;;;;2.33;1.20;;;;;;;21.39;60.59;97604.75;8413538;28;20233;-76
2022/06/25 01:03:15;;;;;;;2.13;1.50;;;;;;;21.34;60.82;97613.09;8413428;28;20563;-78
2022/06/25 01:07:18;;;;;;;4.97;1.50;;;;;;;21.30;61.12;97609.09;8413193;28;20234;-77
2022/06/25 01:11:21;;;;;;;1.63;1.30;;;;;;;21.23;61.33;97615.91;8413271;28;20235;-77
2022/06/25 01:15:24;;;;;;;3.77;1.40;;;;;;;21.21;61.58;97620.47;8412824;28;20413;-76
2022/06/25 01:19:29;;;;;;;2.97;1.30;;;;;;;21.25;60.92;97621.88;8413013;28;20238;-76
2022/06/25 01:23:34;;;;;;;2.50;1.40;;;;;;;21.13;61.26;97621.19;8413084;28;20276;-76
2022/06/25 01:27:37;;;;;;;2.73;1.40;;;;;;;21.15;61.32;97619.28;8412952;28;20231;-76
2022/06/25 01:31:40;;;;;;;2.43;1.30;;;;;;;21.16;61.36;97626.19;8413009;28;20250;-76
2022/06/25 01:35:43;;;;;;;7.33;1.47;;;;;;;21.12;61.17;97621.34;8412959;28;20230;-77
2022/06/25 01:39:47;;;;;;;3.10;1.50;;;;;;;21.13;61.20;97634.34;8414225;28;20231;-76
2022/06/25 01:43:50;;;;;;;2.43;1.40;;;;;;;21.10;61.85;97637.28;8418852;28;20233;-77
2022/06/25 01:47:52;;;;;;;1.93;1.37;;;;;;;21.13;61.68;97637.00;8418907;28;20226;-77
2022/06/25 01:51:55;;;;;;;3.03;1.50;;;;;;;21.11;61.38;97641.56;8418825;28;20227;-77
2022/06/25 01:55:59;;;;;;;1.83;1.33;;;;;;;21.14;61.63;97657.09;8418719;28;20234;-77
2022/06/25 02:00:03;;;;;;;3.93;1.53;;;;;;;21.13;62.09;97651.97;8418348;28;20227;-77
2022/06/25 02:04:06;;;;;;;3.60;1.63;;;;;;;21.05;61.77;97647.41;8418247;28;20229;-77
2022/06/25 02:08:11;;;;;;;3.93;1.50;;;;;;;21.05;61.60;97647.41;8418448;28;20261;-77
2022/06/25 02:12:15;;;;;;;3.00;1.40;;;;;;;20.98;61.97;97655.06;8418195;28;20231;-77
2022/06/25 02:16:20;;;;;;;2.57;1.50;;;;;;;20.95;62.96;97657.13;8418084;28;20233;-78
2022/06/25 02:20:23;;;;;;;2.50;1.40;;;;;;;21.01;62.49;97665.28;8417419;28;20537;-77
2022/06/25 02:24:26;;;;;;;3.60;1.43;;;;;;;20.96;62.63;97664.03;8417526;28;20259;-76
2022/06/25 02:28:30;;;;;;;1.90;1.20;;;;;;;20.94;62.18;97666.81;8417578;28;20293;-77
2022/06/25 02:32:32;;;;;;;1.67;1.20;;;;;;;20.96;61.93;97674.56;8417687;28;20259;-77
2022/06/25 02:36:35;;;;;;;3.33;1.20;;;;;;;20.91;62.93;97680.28;8417621;28;20574;-77
2022/06/25 02:40:38;;;;;;;1.83;1.27;;;;;;;20.96;62.73;97677.19;8417379;28;20237;-77
2022/06/25 02:44:42;;;;;;;2.90;1.20;;;;;;;20.97;61.39;97674.44;8417129;28;20521;-77
2022/06/25 02:48:45;;;;;;;1.57;1.20;;;;;;;20.96;62.26;97679.84;8417180;28;20413;-77
2022/06/25 02:52:48;;;;;;;1.70;1.20;;;;;;;20.95;61.98;97673.75;8415652;28;20234;-77
2022/06/25 03:01:16;;;;;;;1.47;1.30;;;;;;;20.93;63.04;97680.97;8416398;28;20238;-77
2022/06/25 03:05:19;;;;;;;2.57;1.30;;;;;;;20.88;63.19;97680.53;8416588;28;20233;-78
2022/06/25 03:09:23;;;;;;;3.10;1.50;;;;;;;20.88;62.83;97686.63;8415908;28;20235;-76
2022/06/25 03:13:25;;;;;;;2.90;1.50;;;;;;;20.85;62.83;97683.47;8416054;28;20352;-77
2022/06/25 03:17:29;;;;;;;3.47;1.60;;;;;;;20.85;62.48;97686.09;8416141;28;20226;-77
2022/06/25 03:21:33;;;;;;;3.03;1.40;;;;;;;20.90;62.78;97686.50;8415829;28;20248;-76
2022/06/25 03:25:36;;;;;;;4.23;1.47;;;;;;;20.84;62.09;97682.63;8415929;28;20241;-77
2022/06/25 03:29:39;;;;;;;1.83;1.30;;;;;;;20.82;62.24;97686.38;8415724;28;20226;-77
2022/06/25 03:33:43;;;;;;;1.70;1.40;;;;;;;20.85;62.49;97691.38;8415730;28;20238;-77
2022/06/25 03:37:46;;;;;;;3.17;1.40;;;;;;;20.85;62.09;97697.44;8415643;28;20226;-77
2022/06/25 03:41:48;;;;;;;2.00;1.40;;;;;;;20.84;62.11;97694.94;8415375;28;20222;-77
2022/06/25 03:45:51;;;;;;;2.90;1.40;;;;;;;20.74;62.00;97699.41;8415130;28;20222;-78
2022/06/25 03:49:55;;;;;;;3.13;1.20;;;;;;;20.84;61.78;97706.31;8415287;28;20226;-78
2022/06/25 03:53:58;;;;;;;2.33;1.37;;;;;;;20.81;62.05;97701.34;8414819;28;20229;-78
2022/06/25 03:58:01;;;;;;;4.57;1.53;;;;;;;20.81;62.09;97709.22;8414763;28;20410;-78
2022/06/25 04:02:05;;;;;;;2.03;1.37;;;;;;;20.81;61.70;97711.84;8414153;28;20233;-78
2022/06/25 04:06:09;;;;;;;3.10;1.43;;;;;;;20.85;61.94;97707.97;8414718;28;20251;-78
2022/06/25 04:10:12;;;;;;;4.33;1.57;;;;;;;20.83;61.45;97706.47;8414566;28;20237;-77
2022/06/25 04:14:15;;;;;;;3.13;1.30;;;;;;;20.80;61.60;97712.00;8414216;28;20233;-78
2022/06/25 04:18:19;;;;;;;4.50;1.70;;;;;;;20.80;62.05;97718.06;8413968;28;20237;-78
2022/06/25 04:22:23;;;;;;;3.17;1.23;;;;;;;20.72;61.81;97725.03;8413648;28;20231;-77
2022/06/25 04:26:26;;;;;;;3.40;1.50;;;;;;;20.79;62.39;97729.59;8413174;28;20232;-77
2022/06/25 04:30:28;;;;;;;3.73;1.73;;;;;;;20.75;61.96;97730.81;8412997;28;20231;-77
2022/06/25 04:34:30;;;;;;;2.63;1.57;;;;;;;20.73;61.96;97732.75;8413634;28;20436;-77
2022/06/25 04:38:34;;;;;;;3.90;1.50;;;;;;;20.81;61.75;97732.91;8413570;28;20527;-78
2022/06/25 04:42:38;;;;;;;5.43;1.90;;;;;;;20.82;61.93;97736.38;8413493;28;20241;-77
2022/06/25 04:46:40;;;;;;;2.87;1.40;;;;;;;20.85;61.90;97731.66;8413464;28;20253;-77
2022/06/25 04:50:44;;;;;;;3.97;1.70;;;;;;;20.78;62.24;97733.19;8413141;28;20229;-78
2022/06/25 04:54:48;;;;;;;6.27;1.80;;;;;;;20.77;62.04;97747.31;8413172;28;20235;-78
2022/06/25 04:58:51;;;;;;;2.30;1.60;;;;;;;20.71;62.21;97747.84;8413400;28;20256;-77
2022/06/25 05:02:54;;;;;;;2.70;1.70;;;;;;;20.78;61.75;97756.84;8412494;28;20237;-78
2022/06/25 05:06:58;;;;;;;3.70;1.47;;;;;;;20.80;61.64;97754.91;8413104;28;20241;-77
2022/06/25 05:11:03;;;;;;;2.27;1.53;;;;;;;20.76;61.96;97761.44;8412938;28;20231;-77
2022/06/25 05:15:07;;;;;;;3.90;1.70;;;;;;;20.90;61.94;97760.19;8415159;28;20418;-78
2022/06/25 05:19:10;;;;;;;2.37;1.60;;;;;;;21.02;61.58;97751.19;8419664;28;20229;-77
2022/06/25 05:23:13;;;;;;;2.60;1.77;;;;;;;21.11;61.48;97752.16;8419543;28;20241;-78
2022/06/25 05:27:18;;;;;;;3.73;1.60;;;;;;;21.24;61.17;97757.13;8419287;28;20258;-79
2022/06/25 05:31:21;;;;;;;3.87;1.93;;;;;;;21.31;61.64;97762.69;8418817;28;20241;-78
2022/06/25 05:35:24;;;;;;;3.00;1.93;;;;;;;21.40;60.68;97754.75;8418703;28;20242;-77
2022/06/25 05:39:27;;;;;;;5.63;1.80;;;;;;;21.44;60.90;97760.63;8419055;28;20240;-77
2022/06/25 05:43:31;;;;;;;6.13;1.97;;;;;;;21.41;60.97;97764.31;8410355;28;20238;-78
2022/06/25 05:47:34;;;;;;;3.33;2.03;;;;;;;21.50;61.25;97777.66;8385676;28;20235;-78
2022/06/25 05:51:37;;;;;;;2.83;2.00;;;;;;;21.51;60.72;97774.84;8385622;28;20235;-78
2022/06/25 05:55:40;;;;;;;2.53;2.00;;;;;;;21.34;60.58;97775.56;8385571;28;20235;-77
2022/06/25 05:59:44;;;;;;;5.83;2.20;;;;;;;21.59;60.76;97780.28;8385472;28;20227;-79
2022/06/25 06:03:47;;;;;;;4.30;2.40;;;;;;;21.53;60.54;97785.25;8414832;28;20551;-78
2022/06/25 06:07:50;;;;;;;5.50;2.77;;;;;;;21.62;60.18;97790.50;8418032;28;20427;-78
2022/06/25 06:11:53;;;;;;;4.07;2.40;;;;;;;21.75;59.71;97792.03;8418192;28;20234;-78
2022/06/25 06:16:04;;;;;;;3.13;2.57;;;;;;;21.67;59.57;97788.28;8417752;28;20227;-78
2022/06/25 06:20:08;;;;;;;3.90;2.57;;;;;;;21.63;60.32;97791.34;8417540;28;20226;-78
2022/06/25 06:24:11;;;;;;;5.87;2.53;;;;;;;21.94;59.29;97796.41;8417575;28;20259;-78
2022/06/25 06:28:14;;;;;;;3.37;3.07;;;;;;;21.97;58.87;97788.19;8417208;28;20234;-78
2022/06/25 06:32:18;;;;;;;4.80;2.80;;;;;;;22.07;57.79;97786.38;8399453;28;20532;-88
2022/06/25 06:36:21;;;;;;;5.03;3.00;;;;;;;22.29;57.83;97781.72;8384344;28;20246;-79
2022/06/25 06:40:24;;;;;;;3.47;2.73;;;;;;;22.33;58.32;97778.66;8383670;28;20238;-79
2022/06/25 06:44:26;;;;;;;6.27;2.57;;;;;;;22.58;57.55;97785.03;8384105;28;20239;-77
2022/06/25 06:48:30;;;;;;;3.60;2.43;;;;;;;22.83;56.73;97777.38;8383394;28;20239;-79
2022/06/25 06:52:34;;;;;;;2.67;2.33;;;;;;;22.66;56.37;97792.19;8383618;28;20314;-79
2022/06/25 06:56:36;;;;;;;3.47;2.40;;;;;;;22.79;56.13;97792.66;8383608;28;20231;-80
2022/06/25 07:00:39;;;;;;;4.07;2.20;;;;;;;23.09;56.08;97795.94;8386624;28;20239;-79
2022/06/25 07:04:43;;;;;;;3.53;1.90;;;;;;;23.16;54.97;97786.44;8416106;28;20243;-80
2022/06/25 07:08:46;;;;;;;3.13;1.80;;;;;;;23.48;55.02;97794.78;8416153;28;20234;-80
2022/06/25 07:12:49;;;;;;;4.33;2.10;;;;;;;23.55;54.22;97786.09;8416095;28;20226;-78
2022/06/25 07:16:51;;;;;;;3.70;1.90;;;;;;;23.66;54.85;97790.28;8415695;28;20230;-78
2022/06/25 07:20:56;;;;;;;2.20;1.80;;;;;;;23.47;55.28;97801.88;8415715;28;20234;-78
2022/06/25 07:24:59;;;;;;;3.30;1.87;;;;;;;23.74;53.62;97794.78;8415636;28;20526;-78
2022/06/25 07:29:02;;;;;;;4.23;2.03;;;;;;;24.13;53.68;97797.03;8415367;28;20541;-78
2022/06/25 07:33:05;;;;;;;5.37;1.90;;;;;;;24.37;52.35;97801.63;8414656;28;20282;-78
2022/06/25 07:37:10;;;;;;;7.47;1.73;;;;;;;24.34;53.40;97793.97;8413917;28;20233;-78
2022/06/25 07:41:12;;;;;;;4.23;2.07;;;;;;;23.79;53.05;97790.72;8414860;28;20473;-81
2022/06/25 07:45:16;;;;;;;2.47;1.87;;;;;;;24.11;53.49;97796.38;8414621;28;20427;-78
2022/06/25 07:49:18;;;;;;;4.40;3.20;;;;;;;24.74;51.58;97798.59;8414514;28;20239;-78
2022/06/25 07:53:23;;;;;;;3.33;1.80;;;;;;;24.67;51.16;97787.00;8414408;28;20234;-78
2022/06/25 07:57:26;;;;;;;4.00;1.60;;;;;;;25.24;49.54;97786.28;8413796;28;20428;-78
2022/06/25 08:01:29;;;;;;;3.13;1.40;;;;;;;25.60;49.62;97787.75;8413870;28;20241;-79
2022/06/25 08:05:32;;;;;;;2.70;1.70;;;;;;;25.10;48.96;97784.28;8413923;28;20233;-78
2022/06/25 08:09:40;;;;;;;3.43;1.57;;;;;;;25.81;48.95;97781.94;8413746;28;20238;-78
2022/06/25 08:13:43;;;;;;;4.57;1.47;;;;;;;25.89;46.69;97780.09;8414046;28;20235;-78
2022/06/25 08:17:46;;;;;;;6.20;1.57;;;;;;;25.53;48.49;97777.84;8414234;28;20235;-79
2022/06/25 08:21:49;;;;;;;3.30;1.40;;;;;;;25.79;47.62;97784.75;8413903;28;20222;-79
2022/06/25 08:25:53;;;;;;;3.17;1.30;;;;;;;24.88;49.10;97783.88;8414298;28;20241;-79
2022/06/25 08:29:56;;;;;;;3.40;1.40;;;;;;;25.71;47.31;97787.41;8414225;28;20234;-79
2022/06/25 08:33:59;;;;;;;2.63;1.30;;;;;;;25.54;47.86;97783.97;8413827;28;20218;-79
2022/06/25 08:38:02;;;;;;;2.93;1.40;;;;;;;26.00;46.37;97786.06;8413773;28;20231;-79
2022/06/25 08:42:07;;;;;;;2.23;1.20;;;;;;;25.07;47.35;97784.59;8399051;28;20233;-80
2022/06/25 08:46:10;;;;;;;2.37;1.30;;;;;;;25.76;47.52;97790.41;8380605;28;20233;-80
2022/06/25 08:50:15;;;;;;;1.67;1.13;;;;;;;26.76;45.28;97786.41;8380749;28;20230;-81
2022/06/25 08:54:18;;;;;;;2.50;1.13;;;;;;;27.04;45.32;97776.91;8380739;28;20325;-78
2022/06/25 08:58:22;;;;;;;2.33;1.23;;;;;;;27.43;43.30;97775.13;8380587;28;20236;-82
2022/06/25 09:02:25;;;;;;;2.73;1.00;;;;;;;27.38;42.47;97766.88;8397971;28;20398;-79
2022/06/25 09:06:28;;;;;;;3.23;1.10;;;;;;;27.78;40.83;97767.47;8413226;28;20244;-79
2022/06/25 09:10:32;;;;;;;1.40;1.00;;;;;;;27.86;39.38;97762.91;8413909;28;20244;-76
2022/06/25 09:14:37;;;;;;;2.37;1.20;;;;;;;27.58;42.05;97764.53;8413351;28;20233;-77
2022/06/25 09:18:40;;;;;;;2.70;1.00;;;;;;;28.13;40.57;97767.81;8413352;28;20239;-80
2022/06/25 09:22:54;;;;;;;3.07;0.90;;;;;;;28.52;38.52;97766.66;8412823;28;20238;-78
2022/06/25 09:26:56;;;;;;;1.67;1.00;;;;;;;28.81;38.04;97761.25;8413329;28;20389;-77
2022/06/25 09:31:02;;;;;;;3.60;1.00;;;;;;;28.98;37.70;97763.69;8413411;28;20271;-77
2022/06/25 09:35:06;;;;;;;1.77;1.17;;;;;;;28.14;39.46;97762.31;8413036;28;20233;-78
2022/06/25 09:39:09;;;;;;;1.70;0.90;;;;;;;28.85;38.38;97765.19;8413057;28;20230;-77
2022/06/25 09:43:16;;;;;;;1.93;1.00;;;;;;;29.30;38.38;97767.72;8413028;28;20239;-78
2022/06/25 09:47:21;;;;;;;1.83;1.07;;;;;;;29.27;37.89;97754.75;8412888;28;20241;-77
2022/06/25 09:51:24;;;;;;;1.30;1.13;;;;;;;28.76;39.09;97762.84;8412154;28;20232;-78
2022/06/25 09:55:30;;;;;;;1.93;1.00;;;;;;;28.40;37.11;97759.13;8412784;28;20240;-77
2022/06/25 09:59:34;;;;;;;2.67;1.47;;;;;;;28.06;39.84;97752.59;8412683;28;20227;-78
2022/06/25 10:03:38;;;;;;;1.40;1.00;;;;;;;29.24;37.24;97749.78;8417967;28;20230;-77
2022/06/25 10:08:07;;;;;;;2.30;1.13;;;;;;;28.43;38.13;97757.94;8417984;28;20290;-77
2022/06/25 10:12:10;;;;;;;3.50;1.23;;;;;;;27.21;40.37;97751.03;8418438;28;20236;-78
2022/06/25 10:16:13;;;;;;;1.10;0.97;;;;;;;28.39;40.56;97754.84;8418329;28;20234;-77
2022/06/25 10:20:17;;;;;;;1.43;0.90;;;;;;;29.33;37.10;97753.16;8418032;28;20244;-78
2022/06/25 10:24:20;;;;;;;1.77;0.90;;;;;;;29.62;34.33;97746.78;8417758;28;20423;-78
2022/06/25 10:28:28;;;;;;;3.17;1.00;;;;;;;29.50;36.31;97735.84;8417393;28;20510;-76
2022/06/25 10:32:34;;;;;;;2.53;0.90;;;;;;;30.04;34.05;97746.88;8417720;28;20235;-76
2022/06/25 10:36:44;;;;;;;2.30;0.90;;;;;;;30.25;35.33;97740.59;8417931;28;20232;-76
2022/06/25 10:40:49;;;;;;;1.53;1.00;;;;;;;30.19;33.99;97731.53;8417430;28;20231;-76
2022/06/25 10:44:53;;;;;;;1.00;0.80;;;;;;;30.83;33.76;97724.97;8417726;28;20545;-76
2022/06/25 10:49:07;;;;;;;4.50;1.07;;;;;;;30.66;32.08;97729.06;8417260;28;20230;-76
2022/06/25 10:53:20;;;;;;;1.60;0.97;;;;;;;30.92;33.13;97709.56;8416976;28;20240;-76
2022/06/25 10:57:38;;;;;;;1.37;0.80;;;;;;;31.06;32.72;97713.09;8416598;28;20409;-76
2022/06/25 11:01:41;;;;;;;1.27;0.80;;;;;;;31.40;33.03;97697.84;8416787;28;20246;-76
2022/06/25 11:05:46;;;;;;;2.27;0.70;;;;;;;31.01;32.04;97699.50;8416345;28;20253;-77
2022/06/25 11:09:55;;;;;;;2.20;0.90;;;;;;;30.61;31.39;97705.59;8416627;28;20515;-77
2022/06/25 11:13:59;;;;;;;2.57;1.10;;;;;;;30.97;32.23;97699.09;8415465;28;20238;-77
2022/06/25 11:18:07;;;;;;;1.47;0.87;;;;;;;31.24;33.02;97696.41;8401809;28;20240;-77
2022/06/25 11:22:10;;;;;;;1.47;0.80;;;;;;;31.43;31.81;97692.91;8404185;28;20221;-77
2022/06/25 11:30:34;;;;;;;141.33;76.50;;;;;;;31.41;32.10;97688.78;8382494;28;20227;-76
2022/06/25 11:34:37;;;;;;;10.07;5.90;;;;;;;31.12;32.21;97683.66;8382687;28;20251;-82
2022/06/25 11:38:40;;;;;;;13.67;7.07;;;;;;;30.16;32.55;97684.69;8382181;28;20232;-77
2022/06/25 11:42:47;;;;;;;7.87;3.87;;;;;;;30.95;31.67;97683.25;8382523;28;20229;-82
2022/06/25 11:46:51;;;;;;;3.97;2.20;;;;;;;31.27;30.71;97685.31;8382272;28;20236;-78
2022/06/25 11:50:54;;;;;;;11.27;5.97;;;;;;;31.20;31.17;97681.81;8382027;28;20240;-78
2022/06/25 11:54:57;;;;;;;8.43;5.27;;;;;;;31.43;31.72;97676.84;8381915;28;20311;-77
2022/06/25 11:59:01;;;;;;;5.90;2.80;;;;;;;31.48;30.52;97677.06;8381890;28;20541;-80
2022/06/25 12:03:05;;;;;;;8.60;4.27;;;;;;;31.27;30.86;97675.44;8405256;28;20231;-77
2022/06/25 12:07:16;;;;;;;5.23;1.70;;;;;;;30.91;29.42;97683.88;8414633;28;20463;-76
2022/06/25 12:11:20;;;;;;;6.37;2.40;;;;;;;31.16;30.27;97671.53;8414730;28;20238;-77
2022/06/25 12:15:30;;;;;;;2.10;1.00;;;;;;;30.69;28.63;97659.16;8414151;28;20235;-85
2022/06/25 12:19:44;;;;;;;1.67;0.97;;;;;;;31.14;30.68;97667.44;8414282;28;20238;-76
2022/06/25 12:23:52;;;;;;;3.27;1.60;;;;;;;31.28;30.68;97661.03;8413825;28;20235;-77
2022/06/25 12:27:55;;;;;;;2.53;1.10;;;;;;;31.38;30.20;97661.44;8414347;28;20514;-78
2022/06/25 12:32:00;;;;;;;6.60;1.77;;;;;;;31.62;30.23;97647.59;8414240;28;20235;-78
2022/06/25 12:36:16;;;;;;;2.57;1.30;;;;;;;30.99;30.44;97641.72;8413947;28;20527;-76
2022/06/25 12:40:24;;;;;;;1.73;1.03;;;;;;;31.04;31.35;97643.78;8413915;28;20229;-77
2022/06/25 12:44:32;;;;;;;2.57;1.20;;;;;;;31.19;29.44;97640.88;8413476;28;20236;-79
2022/06/25 12:48:36;;;;;;;1.67;0.97;;;;;;;31.31;30.46;97636.53;8413847;28;20228;-79
2022/06/25 12:52:40;;;;;;;4.23;0.90;;;;;;;30.89;29.53;97633.25;8413796;28;20230;-79
2022/06/25 12:56:43;;;;;;;1.40;0.80;;;;;;;30.93;29.61;97637.19;8413785;28;20233;-79
2022/06/25 13:00:46;;;;;;;1.53;0.80;;;;;;;30.81;31.09;97641.50;8413533;28;20227;-78
2022/06/25 13:04:52;;;;;;;2.07;0.70;;;;;;;31.34;30.57;97636.13;8413118;28;20242;-76
2022/06/25 13:08:55;;;;;;;2.93;0.80;;;;;;;31.67;29.12;97640.59;8413612;28;20419;-75
2022/06/25 13:12:58;;;;;;;1.87;0.90;;;;;;;30.34;30.47;97629.94;8413747;28;20233;-77
2022/06/25 13:17:02;;;;;;;3.20;2.00;;;;;;;30.62;30.39;97636.97;8413534;28;20234;-77
2022/06/25 13:21:07;;;;;;;3.50;0.90;;;;;;;29.75;31.85;97637.50;8413517;28;20579;-77
2022/06/25 13:25:11;;;;;;;17.83;2.70;;;;;;;29.42;32.39;97640.78;8406945;28;20536;-76
2022/06/25 13:29:13;;;;;;;3.43;1.03;;;;;;;30.47;31.06;97632.63;8385124;28;20224;-78
2022/06/25 13:33:17;;;;;;;1.77;0.80;;;;;;;30.82;28.79;97627.09;8404754;28;20416;-80
2022/06/25 13:37:21;;;;;;;1.17;0.70;;;;;;;30.97;29.86;97633.06;8400206;28;20230;-83
2022/06/25 13:41:24;;;;;;;1.23;0.90;;;;;;;30.24;29.45;97629.47;8402264;28;20227;-83
2022/06/25 13:45:27;;;;;;;4.90;1.00;;;;;;;29.67;30.68;97636.84;8400193;28;20229;-80
2022/06/25 13:49:30;;;;;;;2.40;0.80;;;;;;;29.90;29.86;97628.53;8405114;28;20521;-78
2022/06/25 13:53:34;;;;;;;1.43;0.50;;;;;;;30.59;29.83;97628.31;8404828;28;20242;-76
2022/06/25 13:57:37;;;;;;;1.43;0.77;;;;;;;30.67;28.78;97626.47;8402008;28;20526;-76
2022/06/25 14:01:40;;;;;;;2.37;0.80;;;;;;;31.02;29.42;97628.97;8403799;28;20231;-77
2022/06/25 14:05:43;;;;;;;3.50;0.87;;;;;;;30.83;28.64;97620.72;8402130;28;20522;-78
2022/06/25 14:09:47;;;;;;;1.43;0.97;;;;;;;30.42;30.46;97628.91;8409358;28;20233;-79
2022/06/25 14:13:51;;;;;;;1.47;0.90;;;;;;;30.54;29.79;97630.78;8401515;28;20232;-80
2022/06/25 14:17:53;;;;;;;1.27;0.80;;;;;;;29.91;31.07;97635.50;8401564;28;20227;-80
2022/06/25 14:21:56;;;;;;;1.97;0.90;;;;;;;29.64;31.38;97635.38;8401568;28;20227;-80
2022/06/25 14:26:00;;;;;;;4.73;1.10;;;;;;;29.54;31.92;97630.38;8417722;28;20227;-79
2022/06/25 14:30:04;;;;;;;3.63;1.07;;;;;;;30.33;30.96;97618.44;8399892;28;20225;-81
2022/06/25 14:34:06;;;;;;;1.47;0.80;;;;;;;30.29;30.27;97614.50;8400952;28;20240;-79
2022/06/25 14:42:31;;;;;;;1.47;1.00;;;;;;;30.60;30.50;97602.44;8394524;28;20416;-79
2022/06/25 14:46:34;;;;;;;1.67;0.90;;;;;;;30.70;30.17;97599.34;8384194;28;20235;-80
2022/06/25 14:50:38;;;;;;;1.87;0.93;;;;;;;30.43;29.38;97595.84;8404138;28;20536;-79
2022/06/25 14:54:41;;;;;;;2.03;1.30;;;;;;;30.38;29.97;97599.94;8416493;28;20242;-81
2022/06/25 14:58:46;;;;;;;2.40;0.90;;;;;;;29.89;29.41;97597.53;8400744;28;20255;-79
2022/06/25 15:02:49;;;;;;;1.53;0.73;;;;;;;30.16;29.63;97590.44;8401037;28;20534;-78
2022/06/25 15:06:52;;;;;;;1.40;0.80;;;;;;;30.10;29.80;97583.22;8415095;28;20291;-79
2022/06/25 15:10:55;;;;;;;2.23;1.30;;;;;;;30.09;29.90;97581.56;8393268;28;20239;-77
2022/06/25 15:14:59;;;;;;;2.53;0.90;;;;;;;30.16;29.33;97579.75;8416206;28;20234;-77
2022/06/25 15:19:02;;;;;;;2.77;0.90;;;;;;;30.16;29.34;97572.56;8415148;28;20235;-78
2022/06/25 15:23:07;;;;;;;3.27;0.90;;;;;;;29.87;27.73;97578.22;8414913;28;20242;-78
2022/06/25 15:27:10;;;;;;;1.17;0.70;;;;;;;29.86;27.55;97566.72;8416022;28;20232;-76
2022/06/25 15:31:15;;;;;;;1.70;0.80;;;;;;;29.86;28.44;97558.72;8415918;28;20233;-77
2022/06/25 15:35:18;;;;;;;3.63;0.90;;;;;;;29.82;29.25;97557.50;8415392;28;20492;-77
2022/06/25 15:39:27;;;;;;;1.63;0.80;;;;;;;29.78;29.27;97561.59;8410150;28;20522;-76
2022/06/25 15:43:30;;;;;;;0.50;0.50;;;;;;;29.78;29.50;97566.91;8382481;28;20235;-76
2022/06/25 15:47:34;;;;;;;1.83;0.80;;;;;;;29.79;29.56;97552.53;8382618;28;20236;-77
2022/06/25 15:51:38;;;;;;;1.70;0.70;;;;;;;29.71;29.86;97550.84;8382054;28;20245;-77
2022/06/25 15:55:40;;;;;;;1.37;0.60;;;;;;;29.76;29.05;97543.09;8381857;28;20236;-77
2022/06/25 15:59:43;;;;;;;3.07;0.80;;;;;;;29.57;28.46;97549.97;8413164;28;20235;-78
2022/06/25 16:03:47;;;;;;;1.90;0.60;;;;;;;29.59;29.42;97544.44;8414111;28;20229;-77
2022/06/25 16:07:50;;;;;;;1.30;0.77;;;;;;;29.30;30.48;97548.19;8411386;28;20312;-79
2022/06/25 16:11:53;;;;;;;2.30;0.90;;;;;;;29.38;29.71;97546.22;8413070;28;20383;-88
2022/06/25 16:15:56;;;;;;;1.27;0.80;;;;;;;29.38;29.61;97546.22;8417194;28;20233;-89
2022/06/25 16:20:01;;;;;;;0.80;0.70;;;;;;;29.23;29.56;97548.19;8416209;28;20295;-87
2022/06/25 16:24:04;;;;;;;1.63;0.80;;;;;;;29.33;29.57;97537.16;8417403;28;20240;-90
2022/06/25 16:28:07;;;;;;;1.93;0.80;;;;;;;29.30;29.80;97537.53;8396259;28;20235;-90
2022/06/25 16:32:10;;;;;;;1.57;1.10;;;;;;;29.23;29.48;97545.53;8383759;28;20241;-89
2022/06/25 16:36:14;;;;;;;0.90;0.80;;;;;;;29.16;29.07;97537.47;8398184;28;20220;-89
2022/06/25 16:40:17;;;;;;;2.67;1.03;;;;;;;29.14;29.92;97538.69;8411084;28;20397;-89
2022/06/25 16:44:21;;;;;;;2.63;1.07;;;;;;;29.03;30.43;97543.53;8414497;28;20233;-81
2022/06/25 16:48:23;;;;;;;2.93;0.80;;;;;;;29.03;29.89;97537.38;8414809;28;20237;-83
2022/06/25 16:52:28;;;;;;;2.87;1.00;;;;;;;28.92;30.75;97537.91;8417763;28;20233;-90
2022/06/25 16:56:32;;;;;;;4.20;1.87;;;;;;;28.66;30.82;97542.88;8402982;28;20227;-81
2022/06/25 17:00:35;;;;;;;4.20;1.23;;;;;;;28.53;31.19;97539.28;8402650;28;20227;-89
2022/06/25 17:04:38;;;;;;;1.30;1.00;;;;;;;28.05;31.86;97545.19;8394772;28;20226;-87
2022/06/25 17:08:42;;;;;;;1.20;0.80;;;;;;;27.85;32.00;97539.59;8408098;28;20521;-84
2022/06/25 17:12:45;;;;;;;2.97;1.23;;;;;;;27.87;32.24;97535.75;8403768;28;20238;-84
2022/06/25 17:16:48;;;;;;;2.03;1.73;;;;;;;27.97;33.42;97527.50;8397539;28;20225;-85
2022/06/25 17:20:51;;;;;;;4.33;1.10;;;;;;;27.78;31.83;97530.72;8407566;28;20223;-92
2022/06/25 17:24:55;;;;;;;5.47;1.80;;;;;;;27.82;33.18;97534.69;8405372;28;20225;-88
2022/06/25 17:29:01;;;;;;;6.77;2.10;;;;;;;27.93;34.58;97533.38;8406150;28;20231;-92
2022/06/25 17:33:04;;;;;;;3.87;2.30;;;;;;;27.76;34.25;97533.59;8408000;28;20410;-81
2022/06/25 17:37:07;;;;;;;2.60;2.07;;;;;;;27.77;33.38;97521.91;8408314;28;20237;-88
2022/06/25 17:41:12;;;;;;;3.67;1.60;;;;;;;27.74;34.02;97524.97;8406111;28;20559;-84
2022/06/25 17:45:15;;;;;;;1.17;0.90;;;;;;;27.48;32.71;97528.16;8407905;28;20228;-81
2022/06/25 17:49:18;;;;;;;4.23;1.40;;;;;;;27.35;33.99;97534.13;8404876;28;20520;-85
2022/06/25 17:53:21;;;;;;;4.23;1.40;;;;;;;27.36;34.78;97532.28;8404248;28;20229;-92
2022/06/25 17:57:25;;;;;;;2.97;1.20;;;;;;;27.00;34.70;97531.19;8405700;28;20225;-90
2022/06/25 18:01:30;;;;;;;3.50;1.10;;;;;;;26.92;34.80;97532.09;8404833;28;20227;-95
2022/06/25 18:05:33;;;;;;;1.83;1.50;;;;;;;27.26;35.37;97537.88;8402844;28;20241;-88
2022/06/25 18:09:36;;;;;;;3.10;1.50;;;;;;;27.20;35.04;97547.38;8407264;28;20233;-86
2022/06/25 18:13:41;;;;;;;4.10;1.50;;;;;;;27.14;35.61;97544.66;8403470;28;20220;-85
2022/06/25 18:17:44;;;;;;;9.13;4.67;;;;;;;27.16;41.00;97546.09;8400297;28;20229;-86
2022/06/25 18:21:46;;;;;;;5.20;1.83;;;;;;;26.99;34.60;97541.97;8402477;28;20432;-82
2022/06/25 18:25:50;;;;;;;2.73;1.30;;;;;;;26.88;35.34;97544.09;8402680;28;20233;-83
2022/06/25 18:29:54;;;;;;;3.60;1.20;;;;;;;26.98;34.86;97543.81;8410316;28;20660;-87
2022/06/25 18:33:58;;;;;;;2.70;1.40;;;;;;;27.04;37.11;97547.59;8403229;28;20332;-94
2022/06/25 18:38:00;;;;;;;2.20;1.10;;;;;;;26.91;35.42;97542.91;8406555;28;20234;-82
2022/06/25 18:42:04;;;;;;;1.77;0.90;;;;;;;26.87;35.29;97547.75;8417696;28;20225;-82
2022/06/25 18:46:10;;;;;;;3.17;1.20;;;;;;;26.85;35.77;97549.75;8417133;28;20414;-82
2022/06/25 18:50:13;;;;;;;4.30;1.60;;;;;;;26.82;36.22;97541.31;8417239;28;20242;-82
2022/06/25 18:54:16;;;;;;;3.43;1.33;;;;;;;26.80;36.37;97543.34;8417128;28;20425;-82
2022/06/25 18:58:19;;;;;;;4.43;1.50;;;;;;;26.78;37.11;97548.00;8417083;28;20237;-82
2022/06/25 19:02:23;;;;;;;3.23;1.57;;;;;;;26.72;37.39;97547.72;8416359;28;20251;-80
2022/06/25 19:06:26;;;;;;;2.00;1.50;;;;;;;26.64;38.30;97547.81;8416559;28;20253;-81
2022/06/25 19:10:29;;;;;;;5.30;1.70;;;;;;;26.59;37.91;97554.63;8412538;28;20234;-81
2022/06/25 19:14:32;;;;;;;8.10;1.90;;;;;;;26.59;38.58;97550.16;8402173;28;20221;-81
2022/06/25 19:18:37;;;;;;;4.20;1.60;;;;;;;26.56;39.17;97557.63;8398866;28;20449;-83
2022/06/25 19:22:40;;;;;;;5.23;2.00;;;;;;;26.51;40.64;97563.50;8399016;28;20531;-81